sensor_id;sensor_type;location;lat;lon;timestamp;pressure;altitude;pressure_sealevel;temperature;humidity
73566;BME280;61846;52.970;-3.168;2023-07-31T00:00:49;99434.49;;;21.80;46.42
73566;BME280;61846;52.970;-3.168;2023-07-31T00:03:15;99436.42;;;21.66;46.70
73566;BME280;61846;52.970;-3.168;2023-07-31T00:05:40;99438.81;;;21.64;46.70
73566;BME280;61846;52.970;-3.168;2023-07-31T00:08:05;99440.49;;;21.76;46.09
73566;BME280;61846;52.970;-3.168;2023-07-31T00:10:31;99437.91;;;21.74;46.66
73566;BME280;61846;52.970;-3.168;2023-07-31T00:12:56;99437.83;;;22.12;45.68
73566;BME280;61846;52.970;-3.168;2023-07-31T00:15:22;99429.22;;;22.12;46.31
73566;BME280;61846;52.970;-3.168;2023-07-31T00:17:47;99426.59;;;21.84;46.26
73566;BME280;61846;52.970;-3.168;2023-07-31T00:20:12;99428.49;;;21.56;46.92
73566;BME280;61846;52.970;-3.168;2023-07-31T00:22:38;99427.08;;;21.88;46.39
73566;BME280;61846;52.970;-3.168;2023-07-31T00:25:03;99428.52;;;21.51;46.57
73566;BME280;61846;52.970;-3.168;2023-07-31T00:27:28;99422.78;;;21.85;47.03
73566;BME280;61846;52.970;-3.168;2023-07-31T00:29:54;99420.64;;;21.12;47.16
73566;BME280;61846;52.970;-3.168;2023-07-31T00:32:19;99423.06;;;20.00;50.41
73566;BME280;61846;52.970;-3.168;2023-07-31T00:34:44;99420.36;;;18.81;53.41
73566;BME280;61846;52.970;-3.168;2023-07-31T00:37:10;99416.80;;;18.30;54.30
73566;BME280;61846;52.970;-3.168;2023-07-31T00:39:35;99411.44;;;18.88;53.69
73566;BME280;61846;52.970;-3.168;2023-07-31T00:42:01;99404.46;;;19.42;52.33
73566;BME280;61846;52.970;-3.168;2023-07-31T00:44:26;99410.31;;;18.26;55.85
73566;BME280;61846;52.970;-3.168;2023-07-31T00:46:52;99407.14;;;18.54;54.59
73566;BME280;61846;52.970;-3.168;2023-07-31T00:49:16;99402.51;;;18.94;53.66
73566;BME280;61846;52.970;-3.168;2023-07-31T00:51:42;99404.53;;;19.59;51.30
73566;BME280;61846;52.970;-3.168;2023-07-31T00:54:08;99400.57;;;20.13;50.94
73566;BME280;61846;52.970;-3.168;2023-07-31T00:56:33;99398.44;;;19.79;51.63
73566;BME280;61846;52.970;-3.168;2023-07-31T00:58:58;99400.90;;;19.92;50.74
73566;BME280;61846;52.970;-3.168;2023-07-31T01:01:23;99407.00;;;20.66;48.93
73566;BME280;61846;52.970;-3.168;2023-07-31T01:03:49;99403.58;;;20.62;48.62
73566;BME280;61846;52.970;-3.168;2023-07-31T01:06:19;99405.18;;;19.76;50.28
73566;BME280;61846;52.970;-3.168;2023-07-31T01:08:44;99400.86;;;20.52;48.99
73566;BME280;61846;52.970;-3.168;2023-07-31T01:11:14;99401.98;;;19.68;50.92
73566;BME280;61846;52.970;-3.168;2023-07-31T01:13:30;99397.99;;;20.10;50.08
73566;BME280;61846;52.970;-3.168;2023-07-31T01:15:55;99396.66;;;19.62;50.79
73566;BME280;61846;52.970;-3.168;2023-07-31T01:18:21;99399.01;;;20.05;51.29
73566;BME280;61846;52.970;-3.168;2023-07-31T01:20:53;99389.79;;;20.19;51.29
73566;BME280;61846;52.970;-3.168;2023-07-31T01:23:25;99385.47;;;20.27;50.35
73566;BME280;61846;52.970;-3.168;2023-07-31T01:25:50;99377.45;;;20.08;50.55
73566;BME280;61846;52.970;-3.168;2023-07-31T01:28:05;99372.27;;;19.12;52.38
73566;BME280;61846;52.970;-3.168;2023-07-31T01:30:31;99373.01;;;18.96;54.09
73566;BME280;61846;52.970;-3.168;2023-07-31T01:32:54;99363.89;;;18.09;55.76
73566;BME280;61846;52.970;-3.168;2023-07-31T01:35:19;99356.57;;;17.77;56.31
73566;BME280;61846;52.970;-3.168;2023-07-31T01:37:45;99349.22;;;18.03;56.57
73566;BME280;61846;52.970;-3.168;2023-07-31T01:40:09;99348.34;;;18.07;56.52
73566;BME280;61846;52.970;-3.168;2023-07-31T01:42:35;99356.50;;;18.28;56.54
73566;BME280;61846;52.970;-3.168;2023-07-31T01:45:00;99354.60;;;17.89;56.20
73566;BME280;61846;52.970;-3.168;2023-07-31T01:47:25;99353.22;;;18.16;54.72
73566;BME280;61846;52.970;-3.168;2023-07-31T01:49:51;99355.02;;;18.30;55.84
73566;BME280;61846;52.970;-3.168;2023-07-31T01:52:16;99356.21;;;17.99;56.24
73566;BME280;61846;52.970;-3.168;2023-07-31T01:54:41;99358.41;;;17.29;58.15
73566;BME280;61846;52.970;-3.168;2023-07-31T01:57:07;99356.31;;;16.95;58.87
73566;BME280;61846;52.970;-3.168;2023-07-31T01:59:32;99362.57;;;17.12;59.19
73566;BME280;61846;52.970;-3.168;2023-07-31T02:01:57;99357.43;;;17.06;59.69
73566;BME280;61846;52.970;-3.168;2023-07-31T02:04:23;99353.44;;;17.40;59.84
73566;BME280;61846;52.970;-3.168;2023-07-31T02:06:48;99357.65;;;16.71;60.70
73566;BME280;61846;52.970;-3.168;2023-07-31T02:09:14;99349.21;;;16.83;61.36
73566;BME280;61846;52.970;-3.168;2023-07-31T02:11:39;99342.48;;;17.17;59.54
73566;BME280;61846;52.970;-3.168;2023-07-31T02:14:05;99348.26;;;16.44;61.34
73566;BME280;61846;52.970;-3.168;2023-07-31T02:16:30;99349.50;;;16.81;61.38
73566;BME280;61846;52.970;-3.168;2023-07-31T02:18:55;99341.48;;;17.05;59.10
73566;BME280;61846;52.970;-3.168;2023-07-31T02:21:21;99344.78;;;17.28;59.12
73566;BME280;61846;52.970;-3.168;2023-07-31T02:23:46;99358.74;;;17.29;58.94
73566;BME280;61846;52.970;-3.168;2023-07-31T02:26:11;99357.66;;;16.69;60.38
73566;BME280;61846;52.970;-3.168;2023-07-31T02:28:36;99351.01;;;16.98;59.88
73566;BME280;61846;52.970;-3.168;2023-07-31T02:31:02;99340.81;;;17.42;58.52
73566;BME280;61846;52.970;-3.168;2023-07-31T02:33:27;99339.00;;;18.10;57.12
73566;BME280;61846;52.970;-3.168;2023-07-31T02:35:53;99339.11;;;17.93;57.18
73566;BME280;61846;52.970;-3.168;2023-07-31T02:38:18;99333.24;;;17.58;57.61
73566;BME280;61846;52.970;-3.168;2023-07-31T02:40:43;99334.36;;;17.89;56.65
73566;BME280;61846;52.970;-3.168;2023-07-31T02:43:09;99319.14;;;17.75;56.82
73566;BME280;61846;52.970;-3.168;2023-07-31T02:45:34;99328.01;;;18.26;55.36
73566;BME280;61846;52.970;-3.168;2023-07-31T02:47:59;99319.29;;;17.25;57.58
73566;BME280;61846;52.970;-3.168;2023-07-31T02:50:25;99321.82;;;17.14;58.43
73566;BME280;61846;52.970;-3.168;2023-07-31T02:52:50;99325.98;;;17.41;57.33
73566;BME280;61846;52.970;-3.168;2023-07-31T02:55:16;99328.46;;;17.61;57.57
73566;BME280;61846;52.970;-3.168;2023-07-31T02:57:41;99332.58;;;17.22;58.44
73566;BME280;61846;52.970;-3.168;2023-07-31T03:00:07;99332.37;;;16.19;60.27
73566;BME280;61846;52.970;-3.168;2023-07-31T03:02:31;99323.53;;;16.45;60.01
73566;BME280;61846;52.970;-3.168;2023-07-31T03:04:57;99324.70;;;16.93;58.95
73566;BME280;61846;52.970;-3.168;2023-07-31T03:07:22;99324.07;;;17.04;59.12
73566;BME280;61846;52.970;-3.168;2023-07-31T03:09:48;99321.04;;;17.67;57.54
73566;BME280;61846;52.970;-3.168;2023-07-31T03:12:13;99324.14;;;17.05;58.38
73566;BME280;61846;52.970;-3.168;2023-07-31T03:14:38;99318.51;;;17.23;58.08
73566;BME280;61846;52.970;-3.168;2023-07-31T03:17:05;99312.73;;;17.52;55.82
73566;BME280;61846;52.970;-3.168;2023-07-31T03:19:31;99313.31;;;17.05;57.00
73566;BME280;61846;52.970;-3.168;2023-07-31T03:21:54;99316.34;;;16.98;56.60
73566;BME280;61846;52.970;-3.168;2023-07-31T03:24:20;99316.96;;;17.59;55.42
73566;BME280;61846;52.970;-3.168;2023-07-31T03:26:45;99315.13;;;17.59;55.71
73566;BME280;61846;52.970;-3.168;2023-07-31T03:29:10;99311.50;;;17.33;56.04
73566;BME280;61846;52.970;-3.168;2023-07-31T03:31:36;99316.48;;;18.23;54.12
73566;BME280;61846;52.970;-3.168;2023-07-31T03:34:01;99314.85;;;18.14;53.19
73566;BME280;61846;52.970;-3.168;2023-07-31T03:36:27;99315.23;;;18.32;53.20
73566;BME280;61846;52.970;-3.168;2023-07-31T03:38:52;99314.85;;;18.49;53.84
73566;BME280;61846;52.970;-3.168;2023-07-31T03:41:17;99316.92;;;18.56;53.49
73566;BME280;61846;52.970;-3.168;2023-07-31T03:43:43;99323.48;;;18.00;54.30
73566;BME280;61846;52.970;-3.168;2023-07-31T03:46:08;99318.63;;;17.84;54.02
73566;BME280;61846;52.970;-3.168;2023-07-31T03:48:33;99320.48;;;18.35;53.37
73566;BME280;61846;52.970;-3.168;2023-07-31T03:50:59;99325.49;;;18.35;53.49
73566;BME280;61846;52.970;-3.168;2023-07-31T03:53:24;99330.98;;;18.03;54.24
73566;BME280;61846;52.970;-3.168;2023-07-31T03:55:50;99331.72;;;18.88;52.50
73566;BME280;61846;52.970;-3.168;2023-07-31T03:58:15;99335.52;;;18.27;53.12
73566;BME280;61846;52.970;-3.168;2023-07-31T04:00:41;99337.99;;;18.50;53.37
73566;BME280;61846;52.970;-3.168;2023-07-31T04:03:06;99339.66;;;18.37;53.10
73566;BME280;61846;52.970;-3.168;2023-07-31T04:05:32;99338.81;;;18.63;51.70
73566;BME280;61846;52.970;-3.168;2023-07-31T04:07:57;99342.35;;;18.19;53.61
73566;BME280;61846;52.970;-3.168;2023-07-31T04:10:22;99327.57;;;17.79;54.67
73566;BME280;61846;52.970;-3.168;2023-07-31T04:12:48;99334.47;;;17.63;54.67
73566;BME280;61846;52.970;-3.168;2023-07-31T04:15:13;99337.58;;;17.62;55.34
73566;BME280;61846;52.970;-3.168;2023-07-31T04:17:38;99333.48;;;17.29;56.40
73566;BME280;61846;52.970;-3.168;2023-07-31T04:20:04;99328.60;;;16.90;55.99
73566;BME280;61846;52.970;-3.168;2023-07-31T04:22:28;99331.66;;;17.20;56.62
73566;BME280;61846;52.970;-3.168;2023-07-31T04:24:54;99335.04;;;17.66;54.10
73566;BME280;61846;52.970;-3.168;2023-07-31T04:27:19;99337.79;;;17.72;54.72
73566;BME280;61846;52.970;-3.168;2023-07-31T04:29:45;99339.51;;;16.99;56.39
73566;BME280;61846;52.970;-3.168;2023-07-31T04:32:10;99336.07;;;17.51;55.42
73566;BME280;61846;52.970;-3.168;2023-07-31T04:34:35;99341.02;;;16.92;57.46
73566;BME280;61846;52.970;-3.168;2023-07-31T04:37:01;99341.06;;;16.76;56.68
73566;BME280;61846;52.970;-3.168;2023-07-31T04:39:26;99338.77;;;16.70;57.16
73566;BME280;61846;52.970;-3.168;2023-07-31T04:41:51;99350.55;;;16.77;56.48
73566;BME280;61846;52.970;-3.168;2023-07-31T04:44:17;99356.08;;;16.64;57.18
73566;BME280;61846;52.970;-3.168;2023-07-31T04:46:42;99360.31;;;17.35;54.88
73566;BME280;61846;52.970;-3.168;2023-07-31T04:49:07;99358.49;;;17.38;54.96
73566;BME280;61846;52.970;-3.168;2023-07-31T04:51:32;99354.70;;;17.04;55.66
73566;BME280;61846;52.970;-3.168;2023-07-31T04:53:58;99357.17;;;17.11;54.30
73566;BME280;61846;52.970;-3.168;2023-07-31T04:56:23;99356.01;;;17.09;54.67
73566;BME280;61846;52.970;-3.168;2023-07-31T04:58:49;99350.35;;;17.02;55.25
73566;BME280;61846;52.970;-3.168;2023-07-31T05:01:14;99351.23;;;16.89;54.70
73566;BME280;61846;52.970;-3.168;2023-07-31T05:03:40;99347.65;;;16.34;56.26
73566;BME280;61846;52.970;-3.168;2023-07-31T05:06:05;99342.97;;;15.88;57.40
73566;BME280;61846;52.970;-3.168;2023-07-31T05:08:30;99329.29;;;16.21;57.13
73566;BME280;61846;52.970;-3.168;2023-07-31T05:10:55;99324.97;;;15.27;58.43
73566;BME280;61846;52.970;-3.168;2023-07-31T05:13:21;99314.43;;;15.71;57.89
73566;BME280;61846;52.970;-3.168;2023-07-31T05:15:47;99302.91;;;15.65;58.29
73566;BME280;61846;52.970;-3.168;2023-07-31T05:18:12;99298.39;;;16.73;56.16
73566;BME280;61846;52.970;-3.168;2023-07-31T05:20:37;99297.68;;;16.19;56.59
73566;BME280;61846;52.970;-3.168;2023-07-31T05:23:02;99288.76;;;16.05;56.13
73566;BME280;61846;52.970;-3.168;2023-07-31T05:25:28;99283.24;;;16.57;54.46
73566;BME280;61846;52.970;-3.168;2023-07-31T05:27:54;99283.00;;;15.84;57.55
73566;BME280;61846;52.970;-3.168;2023-07-31T05:30:19;99282.70;;;16.60;55.12
73566;BME280;61846;52.970;-3.168;2023-07-31T05:32:44;99288.51;;;17.10;53.31
73566;BME280;61846;52.970;-3.168;2023-07-31T05:35:10;99286.11;;;17.14;52.77
73566;BME280;61846;52.970;-3.168;2023-07-31T05:37:35;99290.90;;;17.74;52.84
73566;BME280;61846;52.970;-3.168;2023-07-31T05:40:00;99290.81;;;17.70;51.52
73566;BME280;61846;52.970;-3.168;2023-07-31T05:42:25;99281.39;;;17.28;52.72
73566;BME280;61846;52.970;-3.168;2023-07-31T05:44:50;99276.36;;;17.36;52.48
73566;BME280;61846;52.970;-3.168;2023-07-31T05:47:16;99295.14;;;17.49;51.73
73566;BME280;61846;52.970;-3.168;2023-07-31T05:49:41;99279.62;;;16.75;54.79
73566;BME280;61846;52.970;-3.168;2023-07-31T05:52:07;99275.89;;;16.96;53.64
73566;BME280;61846;52.970;-3.168;2023-07-31T05:54:32;99288.10;;;16.71;54.02
73566;BME280;61846;52.970;-3.168;2023-07-31T05:56:57;99292.59;;;17.37;52.54
73566;BME280;61846;52.970;-3.168;2023-07-31T05:59:22;99290.35;;;17.85;51.13
73566;BME280;61846;52.970;-3.168;2023-07-31T06:01:48;99300.22;;;17.01;53.93
73566;BME280;61846;52.970;-3.168;2023-07-31T06:04:14;99321.65;;;17.61;52.59
73566;BME280;61846;52.970;-3.168;2023-07-31T06:06:39;99324.82;;;17.73;52.49
73566;BME280;61846;52.970;-3.168;2023-07-31T06:09:04;99327.26;;;17.01;53.25
73566;BME280;61846;52.970;-3.168;2023-07-31T06:11:30;99321.85;;;16.81;54.20
73566;BME280;61846;52.970;-3.168;2023-07-31T06:13:56;99318.30;;;17.17;52.86
73566;BME280;61846;52.970;-3.168;2023-07-31T06:16:21;99322.09;;;17.89;52.34
73566;BME280;61846;52.970;-3.168;2023-07-31T06:18:46;99334.56;;;18.06;51.13
73566;BME280;61846;52.970;-3.168;2023-07-31T06:21:12;99334.61;;;18.49;51.12
73566;BME280;61846;52.970;-3.168;2023-07-31T06:23:37;99322.73;;;18.84;48.94
73566;BME280;61846;52.970;-3.168;2023-07-31T06:26:03;99318.17;;;19.23;48.10
73566;BME280;61846;52.970;-3.168;2023-07-31T06:28:28;99319.60;;;17.42;51.72
73566;BME280;61846;52.970;-3.168;2023-07-31T06:30:54;99316.51;;;19.83;47.24
73566;BME280;61846;52.970;-3.168;2023-07-31T06:33:19;99321.04;;;20.09;46.68
73566;BME280;61846;52.970;-3.168;2023-07-31T06:35:44;99320.38;;;20.10;45.86
73566;BME280;61846;52.970;-3.168;2023-07-31T06:38:10;99306.20;;;20.03;46.41
73566;BME280;61846;52.970;-3.168;2023-07-31T06:40:35;99289.86;;;18.85;48.69
73566;BME280;61846;52.970;-3.168;2023-07-31T06:43:00;99289.94;;;19.01;48.24
73566;BME280;61846;52.970;-3.168;2023-07-31T06:45:26;99290.79;;;19.40;47.46
73566;BME280;61846;52.970;-3.168;2023-07-31T06:47:51;99285.10;;;19.18;47.17
73566;BME280;61846;52.970;-3.168;2023-07-31T06:50:16;99271.30;;;18.49;48.66
73566;BME280;61846;52.970;-3.168;2023-07-31T06:52:42;99262.79;;;19.08;48.29
73566;BME280;61846;52.970;-3.168;2023-07-31T06:55:16;99256.46;;;19.84;46.47
73566;BME280;61846;52.970;-3.168;2023-07-31T06:57:32;99252.43;;;20.39;45.89
73566;BME280;61846;52.970;-3.168;2023-07-31T06:59:58;99259.74;;;19.18;47.15
73566;BME280;61846;52.970;-3.168;2023-07-31T07:02:23;99258.21;;;19.95;46.97
73566;BME280;61846;52.970;-3.168;2023-07-31T07:04:49;99258.08;;;19.61;45.87
73566;BME280;61846;52.970;-3.168;2023-07-31T07:07:14;99262.78;;;19.65;46.09
73566;BME280;61846;52.970;-3.168;2023-07-31T07:09:39;99266.44;;;19.08;47.07
73566;BME280;61846;52.970;-3.168;2023-07-31T07:12:05;99265.96;;;19.64;46.48
73566;BME280;61846;52.970;-3.168;2023-07-31T07:14:30;99281.11;;;19.62;46.59
73566;BME280;61846;52.970;-3.168;2023-07-31T07:16:55;99285.21;;;18.30;48.95
73566;BME280;61846;52.970;-3.168;2023-07-31T07:19:21;99289.12;;;19.40;48.01
73566;BME280;61846;52.970;-3.168;2023-07-31T07:21:47;99289.23;;;19.41;47.09
73566;BME280;61846;52.970;-3.168;2023-07-31T07:24:11;99286.79;;;19.95;46.55
73566;BME280;61846;52.970;-3.168;2023-07-31T07:26:37;99291.71;;;19.63;45.65
73566;BME280;61846;52.970;-3.168;2023-07-31T07:29:02;99302.81;;;20.09;45.41
73566;BME280;61846;52.970;-3.168;2023-07-31T07:31:28;99301.93;;;19.33;47.28
73566;BME280;61846;52.970;-3.168;2023-07-31T07:33:53;99305.81;;;19.26;47.28
73566;BME280;61846;52.970;-3.168;2023-07-31T07:36:18;99315.34;;;18.97;48.61
73566;BME280;61846;52.970;-3.168;2023-07-31T07:38:44;99319.75;;;18.94;47.99
73566;BME280;61846;52.970;-3.168;2023-07-31T07:41:09;99323.05;;;18.22;49.53
73566;BME280;61846;52.970;-3.168;2023-07-31T07:43:34;99340.65;;;17.17;53.01
73566;BME280;61846;52.970;-3.168;2023-07-31T07:46:00;99348.19;;;16.96;54.07
73566;BME280;61846;52.970;-3.168;2023-07-31T07:48:25;99338.88;;;16.67;56.09
73566;BME280;61846;52.970;-3.168;2023-07-31T07:50:50;99331.54;;;15.83;58.46
73566;BME280;61846;52.970;-3.168;2023-07-31T07:53:16;99316.86;;;16.53;56.29
73566;BME280;61846;52.970;-3.168;2023-07-31T07:55:41;99308.29;;;17.00;55.75
73566;BME280;61846;52.970;-3.168;2023-07-31T07:58:08;99305.19;;;17.08;54.80
73566;BME280;61846;52.970;-3.168;2023-07-31T08:00:32;99305.18;;;18.10;52.06
73566;BME280;61846;52.970;-3.168;2023-07-31T08:02:58;99300.14;;;17.84;52.20
73566;BME280;61846;52.970;-3.168;2023-07-31T08:05:23;99300.00;;;17.53;52.59
73566;BME280;61846;52.970;-3.168;2023-07-31T08:07:48;99300.22;;;18.37;50.93
73566;BME280;61846;52.970;-3.168;2023-07-31T08:10:13;99311.03;;;18.10;51.32
73566;BME280;61846;52.970;-3.168;2023-07-31T08:12:39;99318.44;;;18.07;51.22
73566;BME280;61846;52.970;-3.168;2023-07-31T08:15:06;99294.23;;;18.24;51.41
73566;BME280;61846;52.970;-3.168;2023-07-31T08:17:30;99283.45;;;17.41;52.25
73566;BME280;61846;52.970;-3.168;2023-07-31T08:19:55;99304.94;;;17.83;51.71
73566;BME280;61846;52.970;-3.168;2023-07-31T08:22:22;99297.97;;;17.62;53.05
73566;BME280;61846;52.970;-3.168;2023-07-31T08:24:45;99299.37;;;17.30;53.42
73566;BME280;61846;52.970;-3.168;2023-07-31T08:27:11;99291.08;;;17.62;52.06
73566;BME280;61846;52.970;-3.168;2023-07-31T08:29:36;99294.61;;;17.78;52.16
73566;BME280;61846;52.970;-3.168;2023-07-31T08:32:02;99287.40;;;16.67;53.90
73566;BME280;61846;52.970;-3.168;2023-07-31T08:34:27;99281.90;;;16.89;55.22
73566;BME280;61846;52.970;-3.168;2023-07-31T08:36:53;99288.51;;;17.30;53.28
73566;BME280;61846;52.970;-3.168;2023-07-31T08:39:18;99279.87;;;16.96;53.74
73566;BME280;61846;52.970;-3.168;2023-07-31T08:41:43;99289.01;;;17.41;52.85
73566;BME280;61846;52.970;-3.168;2023-07-31T08:44:10;99289.44;;;16.87;53.51
73566;BME280;61846;52.970;-3.168;2023-07-31T08:46:34;99295.58;;;17.20;54.00
73566;BME280;61846;52.970;-3.168;2023-07-31T08:49:00;99290.44;;;17.29;53.92
73566;BME280;61846;52.970;-3.168;2023-07-31T08:51:25;99285.06;;;16.72;54.58
73566;BME280;61846;52.970;-3.168;2023-07-31T08:53:50;99281.29;;;17.06;53.96
73566;BME280;61846;52.970;-3.168;2023-07-31T08:56:16;99279.71;;;16.84;53.62
73566;BME280;61846;52.970;-3.168;2023-07-31T08:58:41;99292.30;;;16.67;54.48
73566;BME280;61846;52.970;-3.168;2023-07-31T09:01:07;99299.33;;;16.95;53.34
73566;BME280;61846;52.970;-3.168;2023-07-31T09:03:34;99297.02;;;17.04;53.11
73566;BME280;61846;52.970;-3.168;2023-07-31T09:05:57;99296.26;;;17.51;51.57
73566;BME280;61846;52.970;-3.168;2023-07-31T09:08:22;99292.40;;;16.98;54.00
73566;BME280;61846;52.970;-3.168;2023-07-31T09:10:48;99288.98;;;16.71;53.99
73566;BME280;61846;52.970;-3.168;2023-07-31T09:13:12;99277.95;;;17.79;52.12
73566;BME280;61846;52.970;-3.168;2023-07-31T09:15:39;99279.72;;;17.64;51.52
73566;BME280;61846;52.970;-3.168;2023-07-31T09:18:05;99271.24;;;17.15;52.34
73566;BME280;61846;52.970;-3.168;2023-07-31T09:20:29;99272.35;;;17.92;52.14
73566;BME280;61846;52.970;-3.168;2023-07-31T09:22:55;99279.88;;;17.98;50.28
73566;BME280;61846;52.970;-3.168;2023-07-31T09:25:21;99288.26;;;17.68;51.68
73566;BME280;61846;52.970;-3.168;2023-07-31T09:27:53;99287.59;;;17.83;51.49
73566;BME280;61846;52.970;-3.168;2023-07-31T09:30:10;99285.93;;;18.18;50.54
73566;BME280;61846;52.970;-3.168;2023-07-31T09:32:35;99289.18;;;17.93;51.97
73566;BME280;61846;52.970;-3.168;2023-07-31T09:35:01;99305.48;;;17.26;52.31
73566;BME280;61846;52.970;-3.168;2023-07-31T09:37:29;99326.55;;;17.07;52.57
73566;BME280;61846;52.970;-3.168;2023-07-31T09:39:53;99335.55;;;16.74;54.35
73566;BME280;61846;52.970;-3.168;2023-07-31T09:42:24;99333.88;;;17.29;52.53
73566;BME280;61846;52.970;-3.168;2023-07-31T09:44:43;99339.36;;;18.21;51.01
73566;BME280;61846;52.970;-3.168;2023-07-31T09:49:34;99319.12;;;18.45;50.21
73566;BME280;61846;52.970;-3.168;2023-07-31T09:51:59;99318.33;;;17.86;50.74
73566;BME280;61846;52.970;-3.168;2023-07-31T09:54:25;99317.71;;;17.63;50.97
73566;BME280;61846;52.970;-3.168;2023-07-31T09:56:50;99311.41;;;18.08;49.74
73566;BME280;61846;52.970;-3.168;2023-07-31T09:59:17;99313.45;;;17.76;49.76
73566;BME280;61846;52.970;-3.168;2023-07-31T10:01:42;99311.98;;;17.87;51.43
73566;BME280;61846;52.970;-3.168;2023-07-31T10:04:08;99304.90;;;17.77;50.45
73566;BME280;61846;52.970;-3.168;2023-07-31T10:06:33;99280.54;;;18.32;49.62
73566;BME280;61846;52.970;-3.168;2023-07-31T10:08:57;99262.87;;;18.16;49.39
73566;BME280;61846;52.970;-3.168;2023-07-31T10:11:25;99270.82;;;18.96;48.28
73566;BME280;61846;52.970;-3.168;2023-07-31T10:13:48;99274.76;;;17.80;49.96
73566;BME280;61846;52.970;-3.168;2023-07-31T10:16:14;99265.36;;;18.81;47.89
73566;BME280;61846;52.970;-3.168;2023-07-31T10:18:39;99250.84;;;18.43;48.66
73566;BME280;61846;52.970;-3.168;2023-07-31T10:21:04;99244.48;;;18.53;47.79
73566;BME280;61846;52.970;-3.168;2023-07-31T10:23:29;99258.17;;;18.79;46.25
73566;BME280;61846;52.970;-3.168;2023-07-31T10:25:57;99254.92;;;19.20;46.30
73566;BME280;61846;52.970;-3.168;2023-07-31T10:28:20;99254.70;;;19.68;44.88
73566;BME280;61846;52.970;-3.168;2023-07-31T10:30:45;99257.15;;;19.73;44.74
73566;BME280;61846;52.970;-3.168;2023-07-31T10:33:11;99262.07;;;19.03;45.04
73566;BME280;61846;52.970;-3.168;2023-07-31T10:35:36;99259.51;;;19.13;46.11
73566;BME280;61846;52.970;-3.168;2023-07-31T10:38:11;99250.00;;;19.53;45.30
73566;BME280;61846;52.970;-3.168;2023-07-31T10:40:27;99229.43;;;19.52;44.87
73566;BME280;61846;52.970;-3.168;2023-07-31T10:42:54;99230.66;;;18.78;46.18
73566;BME280;61846;52.970;-3.168;2023-07-31T10:45:24;99253.84;;;19.63;44.98
73566;BME280;61846;52.970;-3.168;2023-07-31T10:47:43;99259.59;;;19.51;44.65
73566;BME280;61846;52.970;-3.168;2023-07-31T10:50:13;99265.96;;;19.12;45.16
73566;BME280;61846;52.970;-3.168;2023-07-31T10:52:34;99281.92;;;18.75;45.85
73566;BME280;61846;52.970;-3.168;2023-07-31T10:57:24;99283.38;;;18.10;47.15
73566;BME280;61846;52.970;-3.168;2023-07-31T10:59:50;99286.17;;;18.39;46.95
73566;BME280;61846;52.970;-3.168;2023-07-31T11:02:24;99280.44;;;18.10;47.74
73566;BME280;61846;52.970;-3.168;2023-07-31T11:04:41;99278.60;;;17.75;49.61
73566;BME280;61846;52.970;-3.168;2023-07-31T11:07:06;99279.26;;;17.73;48.71
73566;BME280;61846;52.970;-3.168;2023-07-31T11:09:32;99279.38;;;17.60;49.08
73566;BME280;61846;52.970;-3.168;2023-07-31T11:11:56;99280.85;;;17.61;48.78
73566;BME280;61846;52.970;-3.168;2023-07-31T11:14:22;99273.59;;;17.94;49.33
73566;BME280;61846;52.970;-3.168;2023-07-31T11:16:50;99248.25;;;17.87;49.44
73566;BME280;61846;52.970;-3.168;2023-07-31T11:19:13;99239.24;;;18.40;48.52
73566;BME280;61846;52.970;-3.168;2023-07-31T11:21:38;99235.14;;;18.22;47.49
73566;BME280;61846;52.970;-3.168;2023-07-31T11:24:04;99239.52;;;19.41;44.82
73566;BME280;61846;52.970;-3.168;2023-07-31T11:26:29;99253.32;;;19.22;44.55
73566;BME280;61846;52.970;-3.168;2023-07-31T11:28:55;99248.11;;;18.58;46.64
73566;BME280;61846;52.970;-3.168;2023-07-31T11:31:20;99233.78;;;19.78;43.70
73566;BME280;61846;52.970;-3.168;2023-07-31T11:33:45;99235.26;;;19.45;43.91
73566;BME280;61846;52.970;-3.168;2023-07-31T11:36:15;99243.05;;;19.09;44.91
73566;BME280;61846;52.970;-3.168;2023-07-31T11:38:36;99227.10;;;19.53;44.31
73566;BME280;61846;52.970;-3.168;2023-07-31T11:41:03;99269.08;;;19.43;43.38
73566;BME280;61846;52.970;-3.168;2023-07-31T11:43:26;99261.08;;;19.10;44.64
73566;BME280;61846;52.970;-3.168;2023-07-31T11:45:54;99253.64;;;18.89;47.11
73566;BME280;61846;52.970;-3.168;2023-07-31T11:48:20;99267.17;;;18.90;47.65
73566;BME280;61846;52.970;-3.168;2023-07-31T11:50:43;99266.93;;;18.64;48.16
73566;BME280;61846;52.970;-3.168;2023-07-31T11:53:09;99266.21;;;18.88;46.17
73566;BME280;61846;52.970;-3.168;2023-07-31T11:55:33;99258.24;;;19.01;46.64
73566;BME280;61846;52.970;-3.168;2023-07-31T11:57:59;99256.30;;;19.79;44.72
73566;BME280;61846;52.970;-3.168;2023-07-31T12:00:24;99263.07;;;18.96;46.47
73566;BME280;61846;52.970;-3.168;2023-07-31T12:02:50;99262.54;;;18.36;48.12
73566;BME280;61846;52.970;-3.168;2023-07-31T12:05:15;99249.02;;;19.34;46.63
73566;BME280;61846;52.970;-3.168;2023-07-31T12:07:46;99252.88;;;18.87;45.93
73566;BME280;61846;52.970;-3.168;2023-07-31T12:10:06;99253.76;;;18.18;48.69
73566;BME280;61846;52.970;-3.168;2023-07-31T12:12:31;99244.29;;;19.64;47.29
73566;BME280;61846;52.970;-3.168;2023-07-31T12:14:56;99242.11;;;19.21;46.81
73566;BME280;61846;52.970;-3.168;2023-07-31T12:17:22;99242.02;;;19.87;45.75
73566;BME280;61846;52.970;-3.168;2023-07-31T12:19:48;99248.22;;;20.16;46.73
73566;BME280;61846;52.970;-3.168;2023-07-31T12:22:13;99257.79;;;20.11;45.51
73566;BME280;61846;52.970;-3.168;2023-07-31T12:24:39;99267.14;;;19.90;46.31
73566;BME280;61846;52.970;-3.168;2023-07-31T12:27:08;99264.51;;;19.46;47.58
73566;BME280;61846;52.970;-3.168;2023-07-31T12:29:33;99263.02;;;18.98;47.77
73566;BME280;61846;52.970;-3.168;2023-07-31T12:31:54;99261.07;;;18.89;47.64
73566;BME280;61846;52.970;-3.168;2023-07-31T12:34:20;99268.24;;;18.96;48.82
73566;BME280;61846;52.970;-3.168;2023-07-31T12:36:45;99255.76;;;18.58;50.69
73566;BME280;61846;52.970;-3.168;2023-07-31T12:39:10;99237.99;;;18.36;51.22
73566;BME280;61846;52.970;-3.168;2023-07-31T12:41:35;99241.35;;;18.77;49.72
73566;BME280;61846;52.970;-3.168;2023-07-31T12:44:00;99241.73;;;18.44;51.27